createdAt,value
2023-04-09T00:00:18.827Z,100853.78
2023-04-09T00:02:54.019Z,100843.47
2023-04-09T00:05:23.880Z,100846.00
2023-04-09T00:07:55.201Z,100843.53
2023-04-09T00:10:34.561Z,100840.13
2023-04-09T00:13:03.826Z,100846.00
2023-04-09T00:15:32.985Z,100849.50
2023-04-09T00:18:02.241Z,100836.66
2023-04-09T00:20:31.578Z,100842.81
2023-04-09T00:23:03.722Z,100846.31
2023-04-09T00:25:33.157Z,100830.75
2023-04-09T00:28:02.208Z,100854.94
2023-04-09T00:30:31.616Z,100848.22
2023-04-09T00:33:01.288Z,100852.53
2023-04-09T00:35:30.998Z,100841.38
2023-04-09T00:38:00.467Z,100841.28
2023-04-09T00:40:37.800Z,100844.66
2023-04-09T00:43:07.418Z,100851.38
2023-04-09T00:45:36.857Z,100849.56
2023-04-09T00:48:06.527Z,100850.44
2023-04-09T00:50:36.074Z,100838.38
2023-04-09T00:53:06.721Z,100843.34
2023-04-09T00:55:38.480Z,100840.63
2023-04-09T00:58:08.129Z,100853.53
2023-04-09T01:00:37.639Z,100840.66
2023-04-09T01:03:08.950Z,100840.72
2023-04-09T01:05:46.422Z,100839.16
2023-04-09T01:08:30.769Z,100834.75
2023-04-09T01:11:18.288Z,100845.16
2023-04-09T01:13:56.402Z,100850.19
2023-04-09T01:16:26.011Z,100838.88
2023-04-09T01:19:01.867Z,100843.28
2023-04-09T01:21:34.128Z,100841.50
2023-04-09T01:24:18.240Z,100818.75
2023-04-09T01:27:03.952Z,100855.25
2023-04-09T01:29:59.795Z,100847.34
2023-04-09T01:32:32.109Z,100851.56
2023-04-09T01:35:02.784Z,100849.72
2023-04-09T01:37:33.336Z,100851.34
2023-04-09T01:40:04.531Z,100847.88
2023-04-09T01:42:34.894Z,100850.44
2023-04-09T01:45:13.011Z,100833.91
2023-04-09T01:47:43.328Z,100853.09
2023-04-09T01:50:22.967Z,100849.63
2023-04-09T01:52:57.543Z,100847.94
2023-04-09T01:55:26.806Z,100856.63
2023-04-09T01:57:56.184Z,100849.88
2023-04-09T02:00:33.265Z,100853.34
2023-04-09T02:03:10.110Z,100847.22
2023-04-09T02:08:26.604Z,100844.47
2023-04-09T02:11:00.738Z,100845.31
2023-04-09T02:13:37.382Z,100852.16
2023-04-09T02:16:11.226Z,100846.94
2023-04-09T02:18:40.549Z,100843.53
2023-04-09T02:21:15.702Z,100847.06
2023-04-09T02:23:45.266Z,100848.81
2023-04-09T02:26:14.428Z,100848.72
2023-04-09T02:28:43.721Z,100843.53
2023-04-09T02:31:25.945Z,100844.38
2023-04-09T02:36:35.149Z,100844.34
2023-04-09T02:39:04.777Z,100846.09
2023-04-09T02:41:34.161Z,100845.25
2023-04-09T02:44:03.534Z,100837.50
2023-04-09T02:46:35.123Z,100842.03
2023-04-09T02:49:10.112Z,100841.31
2023-04-09T02:51:39.533Z,100835.91
2023-04-09T02:54:08.830Z,100831.75
2023-04-09T02:56:38.102Z,100849.06
2023-04-09T02:59:07.589Z,100844.91
2023-04-09T03:01:44.767Z,100839.84
2023-04-09T03:04:14.863Z,100846.84
2023-04-09T03:06:44.539Z,100846.94
2023-04-09T03:09:13.763Z,100835.66
2023-04-09T03:11:42.964Z,100840.22
2023-04-09T03:14:12.253Z,100851.53
2023-04-09T03:16:43.440Z,100845.69
2023-04-09T03:19:12.633Z,100849.41
2023-04-09T03:21:42.108Z,100849.63
2023-04-09T03:24:16.400Z,100848.06
2023-04-09T03:26:46.004Z,100845.63
2023-04-09T03:29:17.404Z,100848.28
2023-04-09T03:31:48.915Z,100852.50
2023-04-09T03:34:25.071Z,100843.97
2023-04-09T03:36:57.362Z,100851.59
2023-04-09T03:39:32.022Z,100856.69
2023-04-09T03:42:01.436Z,100842.75
2023-04-09T03:44:36.072Z,100853.25
2023-04-09T03:47:23.714Z,100862.00
2023-04-09T03:49:53.751Z,100850.84
2023-04-09T03:52:27.273Z,100854.38
2023-04-09T03:55:06.077Z,100836.34
2023-04-09T03:57:35.449Z,100848.75
2023-04-09T04:00:06.786Z,100853.97
2023-04-09T04:02:55.203Z,100849.06
2023-04-09T04:05:44.549Z,100841.16
2023-04-09T04:08:17.184Z,100851.66
2023-04-09T04:13:22.649Z,100842.97
2023-04-09T04:15:57.805Z,100852.47
2023-04-09T04:18:29.104Z,100837.91
2023-04-09T04:21:08.573Z,100847.69
2023-04-09T04:23:37.867Z,100844.34
2023-04-09T04:26:19.349Z,100849.72
2023-04-09T04:28:55.399Z,100846.59
2023-04-09T04:31:39.148Z,100851.13
2023-04-09T04:34:10.377Z,100842.78
2023-04-09T04:36:48.504Z,100840.41
2023-04-09T04:39:19.126Z,100839.84
2023-04-09T04:42:03.203Z,100840.97
2023-04-09T04:44:32.839Z,100839.66
2023-04-09T04:47:18.548Z,100840.63
2023-04-09T04:49:51.213Z,100840.72
2023-04-09T04:52:26.079Z,100835.69
2023-04-09T04:54:56.704Z,100841.81
2023-04-09T04:57:27.554Z,100840.09
2023-04-09T04:59:57.325Z,100838.09
2023-04-09T05:02:26.679Z,100842.31
2023-04-09T05:05:18.541Z,100843.22
2023-04-09T05:07:53.580Z,100834.53
2023-04-09T05:10:28.754Z,100834.75
2023-04-09T05:13:04.402Z,100839.19
2023-04-09T05:15:43.437Z,100841.13
2023-04-09T05:18:13.017Z,100842.25
2023-04-09T05:20:44.520Z,100844.13
2023-04-09T05:23:14.022Z,100833.97
2023-04-09T05:25:52.779Z,100845.31
2023-04-09T05:28:36.157Z,100839.50
2023-04-09T05:31:12.912Z,100841.44
2023-04-09T05:33:48.190Z,100843.44
2023-04-09T05:36:27.608Z,100844.66
2023-04-09T05:38:57.260Z,100850.25
2023-04-09T05:41:26.650Z,100846.16
2023-04-09T05:44:16.248Z,100845.50
2023-04-09T05:46:46.225Z,100844.75
2023-04-09T05:49:24.433Z,100841.44
2023-04-09T05:51:58.699Z,100843.25
2023-04-09T05:54:38.861Z,100830.28
2023-04-09T05:57:11.091Z,100852.00
2023-04-09T06:02:25.657Z,100847.97
2023-04-09T06:04:57.027Z,100855.00
2023-04-09T06:07:40.505Z,100846.44
2023-04-09T06:10:11.033Z,100845.59
2023-04-09T06:12:41.598Z,100858.59
2023-04-09T06:15:12.532Z,100851.63
2023-04-09T06:17:48.126Z,100846.44
2023-04-09T06:20:17.573Z,100853.34
2023-04-09T06:22:48.731Z,100851.63
2023-04-09T06:25:24.720Z,100855.03
2023-04-09T06:30:31.507Z,100854.22
2023-04-09T06:33:00.780Z,100853.34
2023-04-09T06:38:12.059Z,100856.69
2023-04-09T06:40:47.169Z,100847.09
2023-04-09T06:43:16.303Z,100858.31
2023-04-09T06:45:51.205Z,100853.06
2023-04-09T06:48:20.490Z,100862.59
2023-04-09T06:50:49.678Z,100852.19
2023-04-09T06:53:26.171Z,100850.47
2023-04-09T06:55:57.135Z,100860.03
2023-04-09T06:58:26.529Z,100856.59
2023-04-09T07:00:56.046Z,100849.72
2023-04-09T07:03:27.520Z,100865.25
2023-04-09T07:05:57.318Z,100859.13
2023-04-09T07:08:40.238Z,100852.41
2023-04-09T07:11:10.741Z,100850.72
2023-04-09T07:13:39.969Z,100846.41
2023-04-09T07:16:15.894Z,100847.28
2023-04-09T07:18:45.162Z,100855.94
2023-04-09T07:21:14.365Z,100863.69
2023-04-09T07:23:45.564Z,100845.53
2023-04-09T07:26:20.062Z,100861.84
2023-04-09T07:28:49.366Z,100861.63
2023-04-09T07:31:18.820Z,100859.63
2023-04-09T07:33:48.143Z,100862.75
2023-04-09T07:36:17.350Z,100859.16
2023-04-09T07:38:48.532Z,100859.91
2023-04-09T07:41:17.946Z,100866.75
2023-04-09T07:43:47.302Z,100848.63
2023-04-09T07:46:21.570Z,100852.97
2023-04-09T07:48:52.005Z,100865.06
2023-04-09T07:51:42.819Z,100860.50
2023-04-09T07:54:21.507Z,100865.47
2023-04-09T07:56:51.168Z,100861.81
2023-04-09T07:59:27.573Z,100866.25
2023-04-09T08:01:57.174Z,100854.00
2023-04-09T08:04:27.504Z,100855.47
2023-04-09T08:06:56.832Z,100847.59
2023-04-09T08:09:52.953Z,100849.94
2023-04-09T08:12:22.372Z,100855.53
2023-04-09T08:14:52.283Z,100839.97
2023-04-09T08:17:21.834Z,100839.03
2023-04-09T08:19:51.597Z,100849.44
2023-04-09T08:22:25.948Z,100841.53
2023-04-09T08:25:11.672Z,100833.59
2023-04-09T08:27:46.525Z,100834.38
2023-04-09T08:30:16.919Z,100841.47
2023-04-09T08:32:48.195Z,100846.09
2023-04-09T08:35:17.763Z,100834.13
2023-04-09T08:37:47.330Z,100837.78
2023-04-09T08:43:16.534Z,100843.34
2023-04-09T08:45:47.149Z,100843.44
2023-04-09T08:48:16.723Z,100832.91
2023-04-09T08:51:03.062Z,100836.16
2023-04-09T08:53:38.678Z,100834.31
2023-04-09T08:56:10.212Z,100836.72
2023-04-09T08:58:46.593Z,100826.16
2023-04-09T09:04:05.233Z,100828.47
2023-04-09T09:06:36.586Z,100824.09
2023-04-09T09:09:10.274Z,100831.16
2023-04-09T09:11:42.960Z,100821.63
2023-04-09T09:14:13.692Z,100832.13
2023-04-09T09:16:49.476Z,100831.44
2023-04-09T09:19:33.346Z,100808.06
2023-04-09T09:22:05.957Z,100830.56
2023-04-09T09:24:35.831Z,100821.00
2023-04-09T09:27:12.019Z,100821.78
2023-04-09T09:29:44.834Z,100826.91
2023-04-09T09:35:06.536Z,100811.22
2023-04-09T09:37:36.213Z,100808.06
2023-04-09T09:40:12.280Z,100816.03
2023-04-09T09:42:57.873Z,100819.56
2023-04-09T09:45:27.612Z,100807.53
2023-04-09T09:47:57.053Z,100803.31
2023-04-09T09:50:33.750Z,100806.78
2023-04-09T09:53:10.640Z,100792.94
2023-04-09T09:55:42.045Z,100807.63
2023-04-09T09:58:18.843Z,100811.13
2023-04-09T10:00:51.095Z,100803.31
2023-04-09T10:03:25.273Z,100806.75
2023-04-09T10:05:56.142Z,100787.63
2023-04-09T10:08:25.768Z,100798.88
2023-04-09T10:11:15.011Z,100799.69
2023-04-09T10:13:57.003Z,100795.28
2023-04-09T10:16:26.809Z,100790.78
2023-04-09T10:18:57.063Z,100787.53
2023-04-09T10:21:37.531Z,100790.16
2023-04-09T10:24:13.733Z,100790.16
2023-04-09T10:26:44.737Z,100787.63
2023-04-09T10:29:17.924Z,100781.41
2023-04-09T10:32:02.076Z,100783.75
2023-04-09T10:34:32.964Z,100770.69
2023-04-09T10:37:02.425Z,100787.22
2023-04-09T10:39:36.576Z,100782.00
2023-04-09T10:42:16.443Z,100777.50
2023-04-09T10:44:48.203Z,100782.41
2023-04-09T10:47:32.791Z,100778.25
2023-04-09T10:50:17.839Z,100780.09
2023-04-09T10:52:47.450Z,100774.50
2023-04-09T10:55:38.435Z,100772.97
2023-04-09T10:58:11.331Z,100768.16
2023-04-09T11:00:52.382Z,100765.22
2023-04-09T11:03:27.662Z,100769.03
2023-04-09T11:06:02.028Z,100770.47
2023-04-09T11:08:33.059Z,100766.31
2023-04-09T11:11:08.489Z,100772.50
2023-04-09T11:13:38.059Z,100766.09
2023-04-09T11:16:09.440Z,100757.81
2023-04-09T11:18:43.928Z,100766.94
2023-04-09T11:21:14.322Z,100760.91
2023-04-09T11:23:54.183Z,100753.03
2023-04-09T11:26:26.343Z,100746.19
2023-04-09T11:28:59.273Z,100758.78
2023-04-09T11:31:37.663Z,100759.81
2023-04-09T11:34:07.164Z,100746.53
2023-04-09T11:36:37.617Z,100752.59
2023-04-09T11:39:07.155Z,100739.66
2023-04-09T11:41:36.763Z,100733.84
2023-04-09T11:44:06.193Z,100747.13
2023-04-09T11:46:42.912Z,100740.31
2023-04-09T11:49:13.520Z,100746.47
2023-04-09T11:51:42.996Z,100734.47
2023-04-09T11:54:14.286Z,100735.53
2023-04-09T11:56:43.590Z,100740.88
2023-04-09T11:59:16.242Z,100729.88
2023-04-09T12:04:27.497Z,100727.72
2023-04-09T12:09:34.241Z,100728.94
2023-04-09T12:12:03.410Z,100728.16
2023-04-09T12:14:32.663Z,100728.91
2023-04-09T12:17:10.734Z,100733.19
2023-04-09T12:19:40.089Z,100721.06
2023-04-09T12:22:09.287Z,100726.13
2023-04-09T12:24:38.618Z,100719.97
2023-04-09T12:27:07.788Z,100726.03
2023-04-09T12:29:37.131Z,100701.09
2023-04-09T12:32:08.596Z,100716.47
2023-04-09T12:34:37.882Z,100722.63
2023-04-09T12:37:07.099Z,100730.75
2023-04-09T12:39:51.525Z,100727.41
2023-04-09T12:42:21.215Z,100723.91
2023-04-09T12:52:29.452Z,100729.56
2023-04-09T12:55:00.306Z,100719.31
2023-04-09T12:57:34.701Z,100724.53
2023-04-09T13:00:04.332Z,100715.59
2023-04-09T13:02:34.616Z,100728.72
2023-04-09T13:05:37.753Z,100732.22
2023-04-09T13:08:22.114Z,100727.88
2023-04-09T13:10:51.545Z,100730.38
2023-04-09T13:13:21.140Z,100722.56
2023-04-09T13:15:50.654Z,100728.63
2023-04-09T13:18:19.957Z,100720.75
2023-04-09T13:20:55.829Z,100704.38
2023-04-09T13:23:27.284Z,100719.72
2023-04-09T13:25:56.970Z,100716.94
2023-04-09T13:28:26.643Z,100721.00
2023-04-09T13:31:19.983Z,100714.63
2023-04-09T13:33:49.284Z,100711.00
2023-04-09T13:36:18.444Z,100710.81
2023-04-09T13:41:36.442Z,100712.22
2023-04-09T13:44:11.560Z,100717.44
2023-04-09T13:46:41.140Z,100719.09
2023-04-09T13:49:10.362Z,100713.84
2023-04-09T13:51:40.063Z,100698.41
2023-04-09T13:54:11.302Z,100714.88
2023-04-09T13:56:41.483Z,100685.63
2023-04-09T13:59:10.649Z,100701.22
2023-04-09T14:01:40.558Z,100697.00
2023-04-09T14:04:10.957Z,100706.63
2023-04-09T14:06:40.203Z,100706.75
2023-04-09T14:09:12.161Z,100706.94
2023-04-09T14:11:41.674Z,100700.03
2023-04-09T14:14:16.379Z,100699.13
2023-04-09T14:16:45.598Z,100703.53
2023-04-09T14:19:14.926Z,100708.03
2023-04-09T14:21:44.320Z,100688.38
2023-04-09T14:24:15.577Z,100710.81
2023-04-09T14:26:50.330Z,100698.69
2023-04-09T14:29:19.616Z,100699.53
2023-04-09T14:31:55.338Z,100702.22
2023-04-09T14:34:26.468Z,100688.38
2023-04-09T14:36:55.755Z,100668.47
2023-04-09T14:39:31.882Z,100685.72
2023-04-09T14:42:01.414Z,100687.50
2023-04-09T14:44:31.383Z,100694.50
2023-04-09T14:47:06.112Z,100691.03
2023-04-09T14:49:40.384Z,100673.94
2023-04-09T14:52:14.994Z,100692.94
2023-04-09T14:54:46.135Z,100694.72
2023-04-09T14:57:20.872Z,100693.00
2023-04-09T14:59:50.153Z,100687.84
2023-04-09T15:02:19.647Z,100692.25
2023-04-09T15:04:49.273Z,100694.03
2023-04-09T15:07:19.021Z,100688.94
2023-04-09T15:09:50.232Z,100690.72
2023-04-09T15:12:19.956Z,100687.31
2023-04-09T15:14:49.855Z,100691.66
2023-04-09T15:17:19.154Z,100689.06
2023-04-09T15:19:48.686Z,100686.50
2023-04-09T15:22:18.098Z,100683.94
2023-04-09T15:24:52.427Z,100685.69
2023-04-09T15:27:23.738Z,100696.97
2023-04-09T15:29:53.217Z,100688.38
2023-04-09T15:32:23.078Z,100684.09
2023-04-09T15:34:52.549Z,100685.88
2023-04-09T15:37:23.751Z,100678.22
2023-04-09T15:39:53.220Z,100685.94
2023-04-09T15:42:25.527Z,100680.84
2023-04-09T15:44:54.823Z,100690.31
2023-04-09T15:47:24.148Z,100692.94
2023-04-09T15:49:59.273Z,100685.16
2023-04-09T15:52:28.640Z,100690.38
2023-04-09T15:54:57.807Z,100683.44
2023-04-09T15:57:29.222Z,100697.31
2023-04-09T15:59:58.625Z,100704.28
2023-04-09T16:02:27.925Z,100688.78
2023-04-09T16:04:57.562Z,100695.69
2023-04-09T16:07:31.890Z,100697.53
2023-04-09T16:10:07.091Z,100695.88
2023-04-09T16:12:38.631Z,100694.16
2023-04-09T16:15:12.100Z,100697.63
2023-04-09T16:17:47.404Z,100698.50
2023-04-09T16:20:16.906Z,100682.16
2023-04-09T16:22:46.078Z,100695.97
2023-04-09T16:25:15.264Z,100715.88
2023-04-09T16:27:46.530Z,100716.78
2023-04-09T16:30:15.945Z,100721.97
2023-04-09T16:32:45.217Z,100716.81
2023-04-09T16:35:14.426Z,100711.66
2023-04-09T16:37:43.622Z,100725.50
2023-04-09T16:40:13.064Z,100733.28
2023-04-09T16:42:42.238Z,100722.03
2023-04-09T16:45:14.065Z,100740.19
2023-04-09T16:47:51.418Z,100672.81
2023-04-09T16:50:21.985Z,100712.56
2023-04-09T16:52:51.309Z,100711.72
2023-04-09T16:55:21.186Z,100699.63
2023-04-09T16:57:56.759Z,100711.72
2023-04-09T17:00:29.344Z,100709.13
2023-04-09T17:05:48.366Z,100706.53
2023-04-09T17:08:23.823Z,100701.31
2023-04-09T17:11:01.929Z,100690.94
2023-04-09T17:13:37.324Z,100702.13
2023-04-09T17:16:13.118Z,100703.81
2023-04-09T17:18:42.395Z,100693.41
2023-04-09T17:21:12.149Z,100702.88
2023-04-09T17:23:42.306Z,100708.03
2023-04-09T17:26:17.466Z,100708.88
2023-04-09T17:28:46.737Z,100680.31
2023-04-09T17:31:18.839Z,100713.97
2023-04-09T17:33:48.978Z,100716.53
2023-04-09T17:36:24.559Z,100710.47
2023-04-09T17:38:56.049Z,100707.81
2023-04-09T17:41:32.339Z,100712.13
2023-04-09T17:44:01.590Z,100701.66
2023-04-09T17:46:33.058Z,100712.03
2023-04-09T17:49:02.374Z,100712.84
2023-04-09T17:51:31.739Z,100714.53
2023-04-09T17:54:11.535Z,100709.34
2023-04-09T17:56:40.830Z,100712.78
2023-04-09T17:59:10.238Z,100700.63
2023-04-09T18:01:41.686Z,100718.78
2023-04-09T18:04:11.273Z,100717.91
2023-04-09T18:06:40.856Z,100717.00
2023-04-09T18:09:15.576Z,100712.72
2023-04-09T18:11:54.466Z,100713.56
2023-04-09T18:14:24.743Z,100704.78
2023-04-09T18:17:01.498Z,100723.75
2023-04-09T18:19:31.084Z,100722.06
2023-04-09T18:22:00.329Z,100720.34
2023-04-09T18:24:29.953Z,100687.50
2023-04-09T18:27:07.032Z,100714.31
2023-04-09T18:32:12.806Z,100721.13
2023-04-09T18:34:42.026Z,100727.13
2023-04-09T18:37:11.207Z,100715.91
2023-04-09T18:39:40.642Z,100719.31
2023-04-09T18:42:09.713Z,100723.63
2023-04-09T18:44:44.330Z,100722.72
2023-04-09T18:47:15.601Z,100720.13
2023-04-09T18:49:44.977Z,100720.94
2023-04-09T18:52:14.257Z,100726.06
2023-04-09T18:54:43.560Z,100721.75
2023-04-09T18:57:16.703Z,100723.41
2023-04-09T18:59:48.243Z,100715.59
2023-04-09T19:02:24.809Z,100732.81
2023-04-09T19:05:00.538Z,100724.13
2023-04-09T19:07:30.060Z,100726.66
2023-04-09T19:09:59.307Z,100722.34
2023-04-09T19:12:28.867Z,100721.41
2023-04-09T19:15:00.063Z,100719.53
2023-04-09T19:17:31.829Z,100721.22
2023-04-09T19:20:06.143Z,100721.19
2023-04-09T19:22:35.319Z,100721.19
2023-04-09T19:25:04.556Z,100713.47
2023-04-09T19:27:39.228Z,100717.81
2023-04-09T19:30:09.820Z,100724.66
2023-04-09T19:32:41.464Z,100703.88
2023-04-09T19:35:15.437Z,100718.66
2023-04-09T19:37:44.675Z,100726.19
2023-04-09T19:40:16.524Z,100721.75
2023-04-09T19:42:45.902Z,100724.25
2023-04-09T19:45:15.362Z,100724.97
2023-04-09T19:47:46.670Z,100706.78
2023-04-09T19:50:21.098Z,100741.19
2023-04-09T19:52:50.327Z,100736.84
2023-04-09T19:55:19.756Z,100739.34
2023-04-09T19:57:49.270Z,100716.84
2023-04-09T20:00:18.555Z,100735.81
2023-04-09T20:02:49.883Z,100743.53
2023-04-09T20:05:21.006Z,100725.44
2023-04-09T20:07:51.405Z,100734.13
2023-04-09T20:10:30.722Z,100734.94
2023-04-09T20:13:01.913Z,100729.72
2023-04-09T20:15:31.540Z,100728.81
2023-04-09T20:18:03.089Z,100727.00
2023-04-09T20:20:32.730Z,100733.81
2023-04-09T20:23:01.957Z,100728.59
2023-04-09T20:25:34.584Z,100726.81
2023-04-09T20:28:04.443Z,100729.38
2023-04-09T20:30:33.916Z,100733.69
2023-04-09T20:33:11.769Z,100732.84
2023-04-09T20:35:46.093Z,100732.00
2023-04-09T20:38:20.171Z,100733.00
2023-04-09T20:40:51.557Z,100727.84
2023-04-09T20:43:21.276Z,100731.47
2023-04-09T20:45:50.685Z,100736.81
2023-04-09T20:48:21.825Z,100732.63
2023-04-09T20:50:52.048Z,100736.06
2023-04-09T20:53:21.627Z,100737.00
2023-04-09T20:55:51.729Z,100734.47
2023-04-09T20:58:27.158Z,100744.00
2023-04-09T21:01:06.465Z,100735.34
2023-04-09T21:03:38.206Z,100741.44
2023-04-09T21:06:08.638Z,100730.97
2023-04-09T21:08:42.288Z,100738.81
2023-04-09T21:11:11.596Z,100722.28
2023-04-09T21:13:53.845Z,100744.69
2023-04-09T21:16:25.757Z,100739.50
2023-04-09T21:18:57.004Z,100742.06
2023-04-09T21:21:28.118Z,100745.50
2023-04-09T21:23:57.509Z,100733.41
2023-04-09T21:26:26.832Z,100738.56
2023-04-09T21:28:56.265Z,100725.56
2023-04-09T21:31:25.592Z,100739.31
2023-04-09T21:33:56.676Z,100734.09
2023-04-09T21:36:27.968Z,100735.81
2023-04-09T21:38:57.220Z,100734.88
2023-04-09T21:41:26.757Z,100738.22
2023-04-09T21:43:56.329Z,100734.72
2023-04-09T21:46:25.889Z,100734.63
2023-04-09T21:48:58.111Z,100732.88
2023-04-09T21:51:32.482Z,100734.53
2023-04-09T21:54:06.425Z,100712.88
2023-04-09T21:56:36.393Z,100730.22
2023-04-09T21:59:05.637Z,100734.50
2023-04-09T22:01:35.465Z,100724.22
2023-04-09T22:06:41.753Z,100730.31
2023-04-09T22:09:17.233Z,100738.06
2023-04-09T22:11:47.122Z,100738.97
2023-04-09T22:14:16.347Z,100739.09
2023-04-09T22:16:45.778Z,100735.75
2023-04-09T22:19:21.861Z,100735.91
2023-04-09T22:21:51.392Z,100733.41
2023-04-09T22:24:26.226Z,100706.69
2023-04-09T22:26:55.626Z,100730.31
2023-04-09T22:29:24.695Z,100737.25
2023-04-09T22:31:53.999Z,100732.22
2023-04-09T22:34:26.438Z,100718.34
2023-04-09T22:36:55.679Z,100733.91
2023-04-09T22:39:24.789Z,100730.41
2023-04-09T22:41:54.324Z,100735.47
2023-04-09T22:44:23.610Z,100738.88
2023-04-09T22:46:57.959Z,100709.53
2023-04-09T22:49:29.168Z,100733.78
2023-04-09T22:52:05.334Z,100728.66
2023-04-09T22:54:34.552Z,100721.00
2023-04-09T22:57:09.030Z,100721.09
2023-04-09T22:59:40.616Z,100724.56
2023-04-09T23:04:51.973Z,100713.34
2023-04-09T23:07:22.856Z,100731.50
2023-04-09T23:09:54.489Z,100720.34
2023-04-09T23:12:28.686Z,100726.38
2023-04-09T23:15:03.190Z,100720.41
2023-04-09T23:17:37.724Z,100716.13
2023-04-09T23:20:11.076Z,100729.06
2023-04-09T23:22:45.541Z,100715.31
2023-04-09T23:25:15.252Z,100673.75
2023-04-09T23:27:44.976Z,100717.88
2023-04-09T23:30:21.397Z,100720.38
2023-04-09T23:32:52.181Z,100727.16
2023-04-09T23:35:28.592Z,100721.91
2023-04-09T23:37:57.841Z,100722.66
2023-04-09T23:40:27.013Z,100721.66
2023-04-09T23:42:56.735Z,100729.28
2023-04-09T23:45:25.886Z,100724.03
2023-04-09T23:48:00.251Z,100723.09
2023-04-09T23:50:39.069Z,100723.94
2023-04-09T23:55:44.952Z,100711.72
2023-04-09T23:58:21.067Z,100722.22
